createdAt,value
2022-11-16T00:02:11.536Z,7.43
2022-11-16T00:04:38.807Z,7.97
2022-11-16T00:07:06.186Z,9.13
2022-11-16T00:09:33.713Z,7.73
2022-11-16T00:12:04.999Z,8.37
2022-11-16T00:14:34.814Z,7.73
2022-11-16T00:17:02.250Z,6.53
2022-11-16T00:19:29.828Z,9.20
2022-11-16T00:21:56.631Z,9.30
2022-11-16T00:24:24.056Z,6.17
2022-11-16T00:26:53.987Z,9.83
2022-11-16T00:29:26.000Z,7.17
2022-11-16T00:31:54.095Z,9.47
2022-11-16T00:34:22.557Z,6.83
2022-11-16T00:36:49.928Z,6.87
2022-11-16T00:39:18.372Z,8.10
2022-11-16T00:41:45.567Z,8.37
2022-11-16T00:44:12.754Z,7.27
2022-11-16T00:46:40.295Z,11.83
2022-11-16T00:49:07.702Z,7.50
2022-11-16T00:51:36.461Z,7.63
2022-11-16T00:54:06.520Z,13.97
2022-11-16T00:56:33.764Z,9.30
2022-11-16T00:59:02.687Z,7.40
2022-11-16T01:01:29.770Z,8.43
2022-11-16T01:03:56.488Z,7.67
2022-11-16T01:06:23.447Z,9.23
2022-11-16T01:08:50.692Z,7.07
2022-11-16T01:11:37.448Z,9.63
2022-11-16T01:14:07.941Z,8.37
2022-11-16T01:16:34.689Z,7.20
2022-11-16T01:19:01.705Z,9.27
2022-11-16T01:21:28.406Z,7.97
2022-11-16T01:23:57.049Z,8.63
2022-11-16T01:26:24.604Z,10.13
2022-11-16T01:28:51.845Z,7.47
2022-11-16T01:31:18.693Z,8.67
2022-11-16T01:33:45.391Z,9.03
2022-11-16T01:36:14.562Z,8.63
2022-11-16T01:38:47.159Z,7.63
2022-11-16T01:41:16.945Z,8.10
2022-11-16T01:44:02.078Z,10.67
2022-11-16T01:46:30.803Z,9.13
2022-11-16T01:49:16.864Z,11.00
2022-11-16T01:51:51.000Z,14.37
2022-11-16T01:54:18.391Z,8.73
2022-11-16T01:56:48.855Z,9.53
2022-11-16T01:59:17.306Z,8.83
2022-11-16T02:01:44.328Z,7.80
2022-11-16T02:04:14.669Z,9.53
2022-11-16T02:07:14.408Z,9.10
2022-11-16T02:09:58.265Z,9.00
2022-11-16T02:12:43.429Z,7.37
2022-11-16T02:15:47.849Z,7.87
2022-11-16T02:19:02.235Z,10.67
2022-11-16T02:21:59.107Z,7.43
2022-11-16T02:25:12.652Z,7.07
2022-11-16T02:28:20.268Z,6.60
2022-11-16T02:30:52.591Z,7.17
2022-11-16T02:33:25.723Z,7.57
2022-11-16T02:35:58.200Z,9.23
2022-11-16T02:38:30.572Z,10.90
2022-11-16T02:41:06.383Z,8.70
2022-11-16T02:43:43.053Z,11.17
2022-11-16T02:46:18.485Z,8.70
2022-11-16T02:48:52.716Z,9.03
2022-11-16T02:51:20.756Z,13.20
2022-11-16T02:54:17.753Z,12.37
2022-11-16T02:57:04.370Z,11.63
2022-11-16T02:59:41.437Z,13.30
2022-11-16T03:02:33.534Z,15.77
2022-11-16T03:05:17.407Z,13.20
2022-11-16T03:08:25.831Z,15.67
2022-11-16T03:11:20.886Z,12.10
2022-11-16T03:13:49.743Z,15.27
2022-11-16T03:16:26.141Z,13.33
2022-11-16T03:18:58.251Z,15.13
2022-11-16T03:21:41.238Z,14.77
2022-11-16T03:24:08.596Z,15.23
2022-11-16T03:27:08.607Z,15.00
2022-11-16T03:30:06.312Z,13.57
2022-11-16T03:32:54.246Z,11.33
2022-11-16T03:35:52.744Z,13.37
2022-11-16T03:38:23.229Z,13.67
2022-11-16T03:40:51.202Z,12.63
2022-11-16T03:43:20.674Z,14.27
2022-11-16T03:45:47.976Z,11.60
2022-11-16T03:48:14.738Z,13.93
2022-11-16T03:50:42.714Z,13.30
2022-11-16T03:53:09.902Z,14.97
2022-11-16T03:55:36.624Z,12.50
2022-11-16T03:58:04.122Z,11.73
2022-11-16T04:00:30.886Z,13.60
2022-11-16T04:02:57.613Z,14.83
2022-11-16T04:05:42.937Z,14.27
2022-11-16T04:08:36.368Z,16.20
2022-11-16T04:11:22.738Z,13.73
2022-11-16T04:14:09.684Z,15.43
2022-11-16T04:16:54.885Z,14.27
2022-11-16T04:19:40.339Z,16.23
2022-11-16T04:22:38.230Z,12.60
2022-11-16T04:25:15.619Z,14.83
2022-11-16T04:28:01.154Z,16.30
2022-11-16T04:30:47.953Z,16.13
2022-11-16T04:33:33.295Z,15.67
2022-11-16T04:36:20.684Z,14.03
2022-11-16T04:38:47.651Z,14.23
2022-11-16T04:41:33.163Z,16.47
2022-11-16T04:43:59.860Z,12.83
2022-11-16T04:46:44.972Z,14.23
2022-11-16T04:49:11.657Z,13.37
2022-11-16T04:51:38.363Z,14.90
2022-11-16T04:54:05.139Z,13.77
2022-11-16T04:56:31.836Z,14.70
2022-11-16T04:58:58.552Z,14.20
2022-11-16T05:01:45.329Z,17.67
2022-11-16T05:04:12.369Z,13.60
2022-11-16T05:06:39.070Z,16.40
2022-11-16T05:09:05.806Z,16.50
2022-11-16T05:11:32.567Z,13.77
2022-11-16T05:13:59.260Z,13.97
2022-11-16T05:16:26.084Z,14.80
2022-11-16T05:19:11.042Z,15.33
2022-11-16T05:21:37.790Z,15.17
2022-11-16T05:24:23.515Z,14.23
2022-11-16T05:26:50.224Z,15.20
2022-11-16T05:29:16.940Z,12.97
2022-11-16T05:31:43.651Z,15.93
2022-11-16T05:34:10.760Z,14.13
2022-11-16T05:36:37.500Z,12.40
2022-11-16T05:39:05.227Z,16.40
2022-11-16T05:41:32.285Z,16.33
2022-11-16T05:43:59.270Z,16.73
2022-11-16T05:46:26.164Z,15.13
2022-11-16T05:48:52.851Z,14.67
2022-11-16T05:51:19.569Z,12.63
2022-11-16T05:53:46.462Z,14.97
2022-11-16T05:56:15.154Z,18.63
2022-11-16T05:58:43.470Z,15.27
2022-11-16T06:01:10.364Z,16.80
2022-11-16T06:03:37.221Z,16.60
2022-11-16T06:06:05.118Z,15.07
2022-11-16T06:08:32.220Z,15.03
2022-11-16T06:11:09.069Z,16.07
2022-11-16T06:13:36.409Z,15.87
2022-11-16T06:16:04.949Z,14.53
2022-11-16T06:18:32.717Z,15.40
2022-11-16T06:20:59.602Z,15.53
2022-11-16T06:23:26.295Z,14.80
2022-11-16T06:25:55.231Z,14.47
2022-11-16T06:28:23.363Z,14.37
2022-11-16T06:30:50.441Z,13.33
2022-11-16T06:33:18.233Z,13.43
2022-11-16T06:35:45.635Z,15.73
2022-11-16T06:38:18.236Z,13.07
2022-11-16T06:40:49.357Z,17.63
2022-11-16T06:43:16.151Z,12.73
2022-11-16T06:45:42.941Z,13.73
2022-11-16T06:48:09.636Z,13.60
2022-11-16T06:50:36.350Z,16.70
2022-11-16T06:53:03.069Z,14.00
2022-11-16T06:55:29.827Z,13.40
2022-11-16T06:57:57.127Z,12.10
2022-11-16T07:00:23.874Z,15.20
2022-11-16T07:02:50.606Z,14.60
2022-11-16T07:05:17.510Z,15.37
2022-11-16T07:07:44.198Z,15.13
2022-11-16T07:10:11.183Z,15.00
2022-11-16T07:12:38.414Z,13.30
2022-11-16T07:15:05.917Z,14.07
2022-11-16T07:17:33.748Z,14.17
2022-11-16T07:20:00.456Z,12.83
2022-11-16T07:22:27.173Z,13.63
2022-11-16T07:24:53.873Z,13.00
2022-11-16T07:27:20.565Z,14.93
2022-11-16T07:29:47.255Z,12.13
2022-11-16T07:32:13.960Z,11.77
2022-11-16T07:34:40.646Z,13.30
2022-11-16T07:37:07.328Z,14.83
2022-11-16T07:39:34.041Z,12.87
2022-11-16T07:42:00.835Z,14.80
2022-11-16T07:44:28.041Z,14.47
2022-11-16T07:46:55.080Z,12.57
2022-11-16T07:49:21.793Z,10.67
2022-11-16T07:51:48.495Z,14.07
2022-11-16T07:54:16.133Z,14.43
2022-11-16T07:56:42.882Z,13.93
2022-11-16T07:59:11.831Z,13.33
2022-11-16T08:01:38.599Z,14.07
2022-11-16T08:04:05.316Z,12.30
2022-11-16T08:06:32.460Z,12.07
2022-11-16T08:08:59.498Z,14.00
2022-11-16T08:11:27.068Z,13.20
2022-11-16T08:13:53.948Z,13.30
2022-11-16T08:16:22.980Z,12.53
2022-11-16T08:18:49.797Z,12.23
2022-11-16T08:21:18.719Z,12.53
2022-11-16T08:23:46.504Z,16.07
2022-11-16T08:26:19.320Z,15.47
2022-11-16T08:28:50.890Z,15.50
2022-11-16T08:31:25.733Z,13.07
2022-11-16T08:33:52.623Z,11.57
2022-11-16T08:36:20.038Z,11.20
2022-11-16T08:38:49.915Z,10.17
2022-11-16T08:41:18.220Z,10.07
2022-11-16T08:43:47.045Z,9.53
2022-11-16T08:46:14.885Z,10.30
2022-11-16T08:48:41.792Z,10.10
2022-11-16T08:51:18.627Z,9.90
2022-11-16T08:53:47.905Z,10.80
2022-11-16T08:56:16.164Z,11.87
2022-11-16T08:58:44.209Z,10.07
2022-11-16T09:01:20.325Z,9.57
2022-11-16T09:03:47.800Z,10.10
2022-11-16T09:06:15.787Z,8.67
2022-11-16T09:08:44.723Z,10.80
2022-11-16T09:11:18.314Z,9.90
2022-11-16T09:13:47.483Z,8.73
2022-11-16T09:16:16.504Z,9.77
2022-11-16T09:18:46.988Z,8.87
2022-11-16T09:21:19.586Z,8.93
2022-11-16T09:23:48.207Z,8.90
2022-11-16T09:26:18.719Z,8.70
2022-11-16T09:29:04.308Z,8.77
2022-11-16T09:31:34.630Z,8.77
2022-11-16T09:34:02.675Z,8.67
2022-11-16T09:36:29.766Z,8.93
2022-11-16T09:41:59.893Z,7.93
2022-11-16T09:45:05.013Z,8.23
2022-11-16T09:48:12.938Z,8.10
2022-11-16T09:51:08.065Z,8.63
2022-11-16T09:54:03.191Z,8.50
2022-11-16T09:56:35.299Z,7.37
2022-11-16T09:59:24.634Z,7.93
2022-11-16T10:01:59.356Z,9.07
2022-11-16T10:05:08.055Z,8.63
2022-11-16T10:07:43.319Z,8.93
2022-11-16T10:10:28.142Z,8.33
2022-11-16T10:13:20.908Z,10.13
2022-11-16T10:16:08.762Z,9.43
2022-11-16T10:19:31.353Z,10.47
2022-11-16T10:22:06.581Z,8.37
2022-11-16T10:24:59.448Z,7.30
2022-11-16T10:27:42.478Z,10.50
2022-11-16T10:30:13.927Z,8.03
2022-11-16T10:32:54.421Z,8.50
2022-11-16T10:35:45.358Z,8.90
2022-11-16T10:38:16.989Z,8.97
2022-11-16T10:40:51.784Z,9.70
2022-11-16T10:43:24.168Z,8.20
2022-11-16T10:45:55.840Z,10.00
2022-11-16T10:48:37.098Z,9.57
2022-11-16T10:51:05.486Z,8.60
2022-11-16T10:53:38.685Z,10.77
2022-11-16T10:56:34.209Z,9.23
2022-11-16T10:59:20.058Z,10.17
2022-11-16T11:01:57.374Z,8.50
2022-11-16T11:04:30.241Z,7.70
2022-11-16T11:07:24.350Z,9.93
2022-11-16T11:09:54.787Z,10.27
2022-11-16T11:12:39.663Z,8.27
2022-11-16T11:15:12.375Z,7.90
2022-11-16T11:17:42.640Z,9.57
2022-11-16T11:20:15.316Z,8.83
2022-11-16T11:22:54.238Z,10.63
2022-11-16T11:25:24.035Z,8.60
2022-11-16T11:28:05.107Z,7.93
2022-11-16T11:30:32.592Z,8.17
2022-11-16T11:32:59.981Z,7.33
2022-11-16T11:35:32.785Z,10.80
2022-11-16T11:38:07.673Z,8.27
2022-11-16T11:40:36.016Z,8.57
2022-11-16T11:43:06.101Z,10.93
2022-11-16T11:45:47.255Z,8.97
2022-11-16T11:48:54.149Z,9.17
2022-11-16T11:51:35.864Z,8.77
2022-11-16T11:54:05.136Z,8.37
2022-11-16T11:56:34.028Z,8.13
2022-11-16T11:59:03.689Z,7.30
2022-11-16T12:01:58.908Z,7.30
2022-11-16T12:05:02.586Z,8.27
2022-11-16T12:08:29.517Z,8.87
2022-11-16T12:11:18.600Z,9.10
2022-11-16T12:14:13.598Z,7.90
2022-11-16T12:16:55.732Z,9.00
2022-11-16T12:20:02.783Z,8.60
2022-11-16T12:22:48.552Z,7.10
2022-11-16T12:25:35.989Z,7.57
2022-11-16T12:28:40.423Z,7.13
2022-11-16T12:31:35.628Z,7.87
2022-11-16T12:34:32.362Z,6.23
2022-11-16T12:37:21.497Z,6.87
2022-11-16T12:40:27.183Z,6.53
2022-11-16T12:43:21.728Z,7.50
2022-11-16T12:46:21.188Z,6.97
2022-11-16T12:49:17.080Z,6.10
2022-11-16T12:52:17.235Z,5.87
2022-11-16T12:55:27.996Z,5.83
2022-11-16T12:58:05.309Z,6.10
2022-11-16T13:00:53.038Z,6.30
2022-11-16T13:03:31.585Z,6.40
2022-11-16T13:06:07.381Z,7.00
2022-11-16T13:08:53.425Z,7.73
2022-11-16T13:11:46.624Z,5.70
2022-11-16T13:14:20.904Z,5.97
2022-11-16T13:16:50.025Z,7.30
2022-11-16T13:19:18.013Z,6.27
2022-11-16T13:22:06.843Z,6.97
2022-11-16T13:24:54.590Z,7.93
2022-11-16T13:27:53.646Z,6.97
2022-11-16T13:30:24.566Z,13.33
2022-11-16T13:33:10.216Z,14.47
2022-11-16T13:35:38.566Z,7.47
2022-11-16T13:38:13.131Z,7.23
2022-11-16T13:40:41.100Z,5.50
2022-11-16T13:43:10.745Z,4.60
2022-11-16T13:45:42.662Z,4.50
2022-11-16T13:48:22.113Z,3.83
2022-11-16T13:50:57.522Z,4.83
2022-11-16T13:56:29.093Z,3.70
2022-11-16T13:58:58.592Z,3.30
2022-11-16T14:01:26.526Z,3.10
2022-11-16T14:05:04.737Z,3.20
2022-11-16T14:07:46.939Z,3.23
2022-11-16T14:10:35.789Z,2.10
2022-11-16T14:13:04.546Z,2.60
2022-11-16T14:15:38.577Z,2.83
2022-11-16T14:18:08.538Z,4.53
2022-11-16T14:20:38.056Z,4.27
2022-11-16T14:23:48.541Z,3.10
2022-11-16T14:26:56.488Z,3.80
2022-11-16T14:29:55.429Z,3.83
2022-11-16T14:32:42.445Z,3.77
2022-11-16T14:35:33.667Z,3.20
2022-11-16T14:38:06.147Z,4.27
2022-11-16T14:40:56.229Z,3.10
2022-11-16T14:43:34.360Z,3.47
2022-11-16T14:46:09.280Z,4.27
2022-11-16T14:48:45.516Z,4.33
2022-11-16T14:51:21.955Z,3.93
2022-11-16T14:54:03.649Z,4.17
2022-11-16T14:56:30.366Z,4.47
2022-11-16T14:59:03.093Z,7.33
2022-11-16T15:01:35.009Z,5.40
2022-11-16T15:04:09.432Z,5.63
2022-11-16T15:07:03.140Z,6.27
2022-11-16T15:09:40.673Z,6.47
2022-11-16T15:12:45.747Z,6.13
2022-11-16T15:15:12.425Z,9.17
2022-11-16T15:17:46.519Z,6.27
2022-11-16T15:20:20.916Z,7.53
2022-11-16T15:22:52.050Z,7.70
2022-11-16T15:25:33.515Z,5.67
2022-11-16T15:28:29.257Z,6.00
2022-11-16T15:31:05.755Z,6.50
2022-11-16T15:33:37.806Z,7.97
2022-11-16T15:36:32.131Z,9.97
2022-11-16T15:39:03.054Z,6.90
2022-11-16T15:41:29.758Z,7.37
2022-11-16T15:44:14.129Z,7.13
2022-11-16T15:46:45.618Z,8.00
2022-11-16T15:49:35.133Z,6.47
2022-11-16T15:52:02.298Z,8.13
2022-11-16T15:54:52.522Z,6.00
2022-11-16T15:57:21.864Z,6.00
2022-11-16T15:59:54.959Z,5.13
2022-11-16T16:02:30.100Z,5.17
2022-11-16T16:04:56.849Z,6.00
2022-11-16T16:07:38.740Z,6.00
2022-11-16T16:10:20.568Z,5.20
2022-11-16T16:12:59.417Z,6.30
2022-11-16T16:15:34.940Z,6.93
2022-11-16T16:18:13.831Z,6.83
2022-11-16T16:20:48.686Z,9.20
2022-11-16T16:23:16.241Z,9.40
2022-11-16T16:25:49.037Z,9.07
2022-11-16T16:28:17.363Z,10.27
2022-11-16T16:30:44.215Z,9.97
2022-11-16T16:33:19.536Z,9.70
2022-11-16T16:35:49.976Z,11.10
2022-11-16T16:38:17.790Z,10.70
2022-11-16T16:40:44.658Z,9.37
2022-11-16T16:43:11.378Z,9.30
2022-11-16T16:45:42.982Z,11.00
2022-11-16T16:48:12.432Z,14.07
2022-11-16T16:50:39.770Z,14.40
2022-11-16T16:53:06.568Z,16.37
2022-11-16T16:55:37.557Z,11.97
2022-11-16T16:58:06.245Z,10.87
2022-11-16T17:00:33.343Z,9.67
2022-11-16T17:03:00.050Z,12.10
2022-11-16T17:05:26.761Z,9.40
2022-11-16T17:07:56.487Z,9.90
2022-11-16T17:10:23.402Z,8.87
2022-11-16T17:12:54.039Z,8.97
2022-11-16T17:15:20.980Z,7.83
2022-11-16T17:17:48.060Z,6.63
2022-11-16T17:20:16.245Z,7.17
2022-11-16T17:22:43.368Z,7.33
2022-11-16T17:25:10.503Z,7.50
2022-11-16T17:27:37.276Z,6.27
2022-11-16T17:30:04.777Z,5.93
2022-11-16T17:32:31.480Z,6.83
2022-11-16T17:34:58.201Z,5.70
2022-11-16T17:37:24.902Z,5.27
2022-11-16T17:39:51.579Z,4.70
2022-11-16T17:42:18.288Z,5.67
2022-11-16T17:44:44.974Z,4.97
2022-11-16T17:47:11.649Z,4.60
2022-11-16T17:49:38.381Z,4.47
2022-11-16T17:52:06.100Z,5.00
2022-11-16T17:54:32.837Z,4.60
2022-11-16T17:56:59.600Z,4.90
2022-11-16T17:59:29.423Z,4.90
2022-11-16T18:01:57.800Z,5.37
2022-11-16T18:04:24.888Z,6.17
2022-11-16T18:06:51.728Z,7.03
2022-11-16T18:09:18.705Z,7.07
2022-11-16T18:11:45.568Z,9.07
2022-11-16T18:14:12.248Z,7.97
2022-11-16T18:16:42.194Z,9.70
2022-11-16T18:19:09.933Z,8.80
2022-11-16T18:21:41.548Z,12.67
2022-11-16T18:24:09.456Z,9.37
2022-11-16T18:26:36.757Z,9.40
2022-11-16T18:29:04.168Z,9.63
2022-11-16T18:31:32.916Z,8.67
2022-11-16T18:34:01.619Z,8.00
2022-11-16T18:36:28.380Z,7.43
2022-11-16T18:38:55.075Z,6.53
2022-11-16T18:41:25.537Z,5.80
2022-11-16T18:43:57.796Z,7.33
2022-11-16T18:46:27.817Z,5.97
2022-11-16T18:48:55.833Z,5.97
2022-11-16T18:51:24.399Z,6.77
2022-11-16T18:53:51.664Z,6.43
2022-11-16T18:56:19.456Z,6.10
2022-11-16T18:58:51.947Z,7.60
2022-11-16T19:01:23.564Z,6.03
2022-11-16T19:03:52.598Z,5.97
2022-11-16T19:06:20.181Z,6.93
2022-11-16T19:08:55.738Z,6.60
2022-11-16T19:11:24.307Z,7.30
2022-11-16T19:14:00.628Z,7.87
2022-11-16T19:16:28.137Z,11.37
2022-11-16T19:18:55.515Z,8.17
2022-11-16T19:21:23.195Z,8.93
2022-11-16T19:23:53.156Z,8.87
2022-11-16T19:26:24.480Z,8.07
2022-11-16T19:28:52.939Z,8.87
2022-11-16T19:31:26.843Z,8.73
2022-11-16T19:34:10.290Z,10.07
2022-11-16T19:36:37.542Z,10.63
2022-11-16T19:39:05.809Z,10.00
2022-11-16T19:41:32.628Z,13.90
2022-11-16T19:44:01.575Z,17.67
2022-11-16T19:46:31.828Z,12.90
2022-11-16T19:48:59.856Z,12.67
2022-11-16T19:51:35.707Z,11.83
2022-11-16T19:54:02.849Z,12.67
2022-11-16T19:56:29.944Z,15.03
2022-11-16T19:58:56.962Z,17.47
2022-11-16T20:01:28.489Z,16.57
2022-11-16T20:04:00.767Z,19.43
2022-11-16T20:06:34.530Z,15.57
2022-11-16T20:09:11.812Z,17.77
2022-11-16T20:11:41.115Z,15.47
2022-11-16T20:14:12.202Z,16.07
2022-11-16T20:16:42.129Z,15.50
2022-11-16T20:19:11.135Z,14.27
2022-11-16T20:21:41.448Z,18.63
2022-11-16T20:24:12.823Z,15.87
2022-11-16T20:26:46.511Z,14.50
2022-11-16T20:29:16.045Z,15.43
2022-11-16T20:31:45.219Z,14.33
2022-11-16T20:34:17.400Z,16.30
2022-11-16T20:36:47.847Z,14.50
2022-11-16T20:39:18.782Z,12.70
2022-11-16T20:41:46.316Z,14.07
2022-11-16T20:44:21.873Z,15.60
2022-11-16T20:46:50.504Z,13.93
2022-11-16T20:49:17.359Z,16.50
2022-11-16T20:51:47.430Z,12.57
2022-11-16T20:54:14.419Z,12.40
2022-11-16T20:56:41.129Z,11.13
2022-11-16T20:59:07.846Z,14.17
2022-11-16T21:01:35.053Z,18.00
2022-11-16T21:04:05.197Z,14.13
2022-11-16T21:06:33.520Z,13.07
2022-11-16T21:09:01.010Z,12.20
2022-11-16T21:11:51.052Z,10.27
2022-11-16T21:14:19.412Z,12.13
2022-11-16T21:16:46.269Z,16.20
2022-11-16T21:19:13.636Z,14.17
2022-11-16T21:21:41.207Z,12.33
2022-11-16T21:24:09.432Z,13.50
2022-11-16T21:26:37.211Z,11.07
2022-11-16T21:29:04.568Z,11.40
2022-11-16T21:31:36.396Z,14.10
2022-11-16T21:34:03.477Z,13.30
2022-11-16T21:36:32.284Z,12.27
2022-11-16T21:39:00.142Z,8.73
2022-11-16T21:41:28.345Z,8.43
2022-11-16T21:43:55.574Z,7.00
2022-11-16T21:46:26.050Z,5.60
2022-11-16T21:48:55.359Z,10.43
2022-11-16T21:51:25.337Z,8.03
2022-11-16T21:53:52.696Z,4.97
2022-11-16T21:56:22.222Z,5.67
2022-11-16T21:58:51.049Z,4.53
2022-11-16T22:01:17.966Z,4.27
2022-11-16T22:03:45.099Z,4.23
2022-11-16T22:06:34.450Z,5.00
2022-11-16T22:09:01.538Z,4.67
2022-11-16T22:11:28.274Z,5.50
2022-11-16T22:13:55.002Z,5.83
2022-11-16T22:16:24.352Z,5.40
2022-11-16T22:18:53.405Z,5.73
2022-11-16T22:21:20.098Z,8.63
2022-11-16T22:23:46.800Z,5.67
2022-11-16T22:26:14.423Z,6.10
2022-11-16T22:28:41.594Z,5.90
2022-11-16T22:31:13.806Z,8.10
2022-11-16T22:33:41.085Z,6.13
2022-11-16T22:36:10.446Z,5.83
2022-11-16T22:38:37.619Z,6.00
2022-11-16T22:41:04.778Z,6.13
2022-11-16T22:43:32.417Z,6.30
2022-11-16T22:46:05.396Z,6.30
2022-11-16T22:48:38.674Z,6.40
2022-11-16T22:51:30.060Z,5.87
2022-11-16T22:54:00.478Z,6.30
2022-11-16T22:56:29.443Z,6.73
2022-11-16T22:58:56.756Z,7.37
2022-11-16T23:01:24.223Z,7.63
2022-11-16T23:03:51.082Z,7.33
2022-11-16T23:06:18.292Z,8.13
2022-11-16T23:08:45.198Z,6.87
2022-11-16T23:11:32.550Z,7.27
2022-11-16T23:14:18.488Z,7.43
2022-11-16T23:16:45.602Z,7.27
2022-11-16T23:19:34.289Z,8.27
2022-11-16T23:22:19.651Z,8.87
2022-11-16T23:25:04.872Z,9.83
2022-11-16T23:27:48.996Z,9.70
2022-11-16T23:30:16.384Z,9.93
2022-11-16T23:32:43.249Z,10.80
2022-11-16T23:35:10.946Z,11.60
2022-11-16T23:38:02.276Z,15.67
2022-11-16T23:40:38.849Z,12.90
2022-11-16T23:43:25.644Z,11.50
2022-11-16T23:45:52.323Z,12.43
2022-11-16T23:48:19.532Z,14.57
2022-11-16T23:50:46.680Z,12.37
2022-11-16T23:53:14.365Z,14.20
2022-11-16T23:55:41.625Z,14.00
2022-11-16T23:58:14.524Z,17.13
